Water Valley, Kentucky
Current Conditions -  °F | °C
As of 8:55 PM on Thursday 20 Nov 2014 (Local Time) from KUCY Reporting Station
Overcast Overcast  
Wind Chill: 36°   Ceiling: 6500
Heat Index: 36°   Visibility: 10mi
Dew Point: 28°   Wind: 3mph
Humidity: 75%   Direction: 30°NNE
Pressure: 30.26"   Gusts: NA
Location:  36.57°N, 88.81°W
Report Text: KUCY 210255Z AUTO 03003KT 10SM OVC065 02/M02 A3026 RMK
Loading
Personal Weather Stations






























Interactive Weather Map New forecast layout! Learn more

10-Day Weather Forecast

Advertisements
Track Severe Weather on mobile